sensor_id;sensor_type;location;lat;lon;timestamp;P1;durP1;ratioP1;P2;durP2;ratioP2
21837;SDS011;11081;45.946;6.140;2023-06-22T00:01:26;13.43;;;4.75;;
21837;SDS011;11081;45.946;6.140;2023-06-22T00:03:54;13.93;;;5.00;;
21837;SDS011;11081;45.946;6.140;2023-06-22T00:06:22;19.17;;;4.72;;
21837;SDS011;11081;45.946;6.140;2023-06-22T00:08:50;13.90;;;4.85;;
21837;SDS011;11081;45.946;6.140;2023-06-22T00:11:18;14.57;;;4.82;;
21837;SDS011;11081;45.946;6.140;2023-06-22T00:13:46;14.20;;;4.50;;
21837;SDS011;11081;45.946;6.140;2023-06-22T00:16:17;13.07;;;4.90;;
21837;SDS011;11081;45.946;6.140;2023-06-22T00:18:45;17.85;;;4.90;;
21837;SDS011;11081;45.946;6.140;2023-06-22T00:21:14;12.18;;;5.28;;
21837;SDS011;11081;45.946;6.140;2023-06-22T00:23:42;16.92;;;4.95;;
21837;SDS011;11081;45.946;6.140;2023-06-22T00:26:10;14.23;;;4.20;;
21837;SDS011;11081;45.946;6.140;2023-06-22T00:28:39;16.48;;;5.28;;
21837;SDS011;11081;45.946;6.140;2023-06-22T00:31:07;11.60;;;4.95;;
21837;SDS011;11081;45.946;6.140;2023-06-22T00:33:36;17.65;;;5.25;;
21837;SDS011;11081;45.946;6.140;2023-06-22T00:36:05;17.35;;;4.75;;
21837;SDS011;11081;45.946;6.140;2023-06-22T00:38:34;13.68;;;4.85;;
21837;SDS011;11081;45.946;6.140;2023-06-22T00:41:05;14.43;;;5.00;;
21837;SDS011;11081;45.946;6.140;2023-06-22T00:43:32;14.38;;;4.78;;
21837;SDS011;11081;45.946;6.140;2023-06-22T00:46:02;16.90;;;4.90;;
21837;SDS011;11081;45.946;6.140;2023-06-22T00:48:30;11.20;;;4.85;;
21837;SDS011;11081;45.946;6.140;2023-06-22T00:51:00;14.05;;;4.60;;
21837;SDS011;11081;45.946;6.140;2023-06-22T00:53:28;13.98;;;4.65;;
21837;SDS011;11081;45.946;6.140;2023-06-22T00:56:01;21.65;;;5.85;;
21837;SDS011;11081;45.946;6.140;2023-06-22T00:58:30;16.70;;;5.00;;
21837;SDS011;11081;45.946;6.140;2023-06-22T01:00:59;18.75;;;5.25;;
21837;SDS011;11081;45.946;6.140;2023-06-22T01:03:27;16.35;;;5.53;;
21837;SDS011;11081;45.946;6.140;2023-06-22T01:05:58;15.32;;;4.80;;
21837;SDS011;11081;45.946;6.140;2023-06-22T01:08:41;15.73;;;4.78;;
21837;SDS011;11081;45.946;6.140;2023-06-22T01:11:16;17.33;;;4.78;;
21837;SDS011;11081;45.946;6.140;2023-06-22T01:13:49;11.50;;;4.60;;
21837;SDS011;11081;45.946;6.140;2023-06-22T01:16:26;8.25;;;4.20;;
21837;SDS011;11081;45.946;6.140;2023-06-22T01:19:00;14.30;;;4.72;;
21837;SDS011;11081;45.946;6.140;2023-06-22T01:21:38;16.23;;;4.90;;
21837;SDS011;11081;45.946;6.140;2023-06-22T01:24:11;13.75;;;4.50;;
21837;SDS011;11081;45.946;6.140;2023-06-22T01:26:48;12.48;;;5.10;;
21837;SDS011;11081;45.946;6.140;2023-06-22T01:29:27;18.85;;;4.78;;
21837;SDS011;11081;45.946;6.140;2023-06-22T01:31:57;11.20;;;4.72;;
21837;SDS011;11081;45.946;6.140;2023-06-22T01:34:28;14.20;;;4.57;;
21837;SDS011;11081;45.946;6.140;2023-06-22T01:36:58;11.65;;;4.82;;
21837;SDS011;11081;45.946;6.140;2023-06-22T01:39:29;16.55;;;5.43;;
21837;SDS011;11081;45.946;6.140;2023-06-22T01:41:58;16.17;;;5.40;;
21837;SDS011;11081;45.946;6.140;2023-06-22T01:44:29;19.27;;;5.20;;
21837;SDS011;11081;45.946;6.140;2023-06-22T01:46:57;14.57;;;5.15;;
21837;SDS011;11081;45.946;6.140;2023-06-22T01:49:26;18.60;;;5.72;;
21837;SDS011;11081;45.946;6.140;2023-06-22T01:51:56;17.20;;;5.50;;
21837;SDS011;11081;45.946;6.140;2023-06-22T01:54:24;18.35;;;5.32;;
21837;SDS011;11081;45.946;6.140;2023-06-22T01:56:52;14.52;;;5.05;;
21837;SDS011;11081;45.946;6.140;2023-06-22T01:59:22;13.82;;;5.00;;
21837;SDS011;11081;45.946;6.140;2023-06-22T02:01:57;13.65;;;5.43;;
21837;SDS011;11081;45.946;6.140;2023-06-22T02:04:40;17.45;;;5.45;;
21837;SDS011;11081;45.946;6.140;2023-06-22T02:07:30;17.73;;;5.25;;
21837;SDS011;11081;45.946;6.140;2023-06-22T02:10:02;14.15;;;5.38;;
21837;SDS011;11081;45.946;6.140;2023-06-22T02:12:31;15.27;;;5.43;;
21837;SDS011;11081;45.946;6.140;2023-06-22T02:15:02;17.58;;;5.40;;
21837;SDS011;11081;45.946;6.140;2023-06-22T02:17:33;18.52;;;5.63;;
21837;SDS011;11081;45.946;6.140;2023-06-22T02:20:02;21.40;;;5.50;;
21837;SDS011;11081;45.946;6.140;2023-06-22T02:22:35;15.95;;;4.72;;
21837;SDS011;11081;45.946;6.140;2023-06-22T02:25:03;10.98;;;5.00;;
21837;SDS011;11081;45.946;6.140;2023-06-22T02:27:31;14.93;;;4.95;;
21837;SDS011;11081;45.946;6.140;2023-06-22T02:29:59;15.10;;;5.13;;
21837;SDS011;11081;45.946;6.140;2023-06-22T02:32:28;15.80;;;5.53;;
21837;SDS011;11081;45.946;6.140;2023-06-22T02:34:57;17.60;;;5.80;;
21837;SDS011;11081;45.946;6.140;2023-06-22T02:37:25;14.75;;;5.60;;
21837;SDS011;11081;45.946;6.140;2023-06-22T02:39:56;13.95;;;4.82;;
21837;SDS011;11081;45.946;6.140;2023-06-22T02:42:24;14.43;;;4.90;;
21837;SDS011;11081;45.946;6.140;2023-06-22T02:44:52;12.85;;;5.07;;
21837;SDS011;11081;45.946;6.140;2023-06-22T02:47:20;13.10;;;5.43;;
21837;SDS011;11081;45.946;6.140;2023-06-22T02:49:49;18.08;;;5.90;;
21837;SDS011;11081;45.946;6.140;2023-06-22T02:52:19;16.48;;;5.68;;
21837;SDS011;11081;45.946;6.140;2023-06-22T02:54:47;13.38;;;5.18;;
21837;SDS011;11081;45.946;6.140;2023-06-22T02:57:15;16.20;;;5.60;;
21837;SDS011;11081;45.946;6.140;2023-06-22T02:59:43;14.25;;;5.28;;
21837;SDS011;11081;45.946;6.140;2023-06-22T03:02:12;21.58;;;5.68;;
21837;SDS011;11081;45.946;6.140;2023-06-22T03:04:41;13.57;;;5.00;;
21837;SDS011;11081;45.946;6.140;2023-06-22T03:07:10;13.90;;;5.40;;
21837;SDS011;11081;45.946;6.140;2023-06-22T03:09:39;16.63;;;5.93;;
21837;SDS011;11081;45.946;6.140;2023-06-22T03:12:09;20.35;;;4.93;;
21837;SDS011;11081;45.946;6.140;2023-06-22T03:14:47;16.33;;;5.07;;
21837;SDS011;11081;45.946;6.140;2023-06-22T03:17:16;16.40;;;5.15;;
21837;SDS011;11081;45.946;6.140;2023-06-22T03:19:44;16.95;;;5.35;;
21837;SDS011;11081;45.946;6.140;2023-06-22T03:22:12;16.35;;;4.88;;
21837;SDS011;11081;45.946;6.140;2023-06-22T03:24:42;16.50;;;5.15;;
21837;SDS011;11081;45.946;6.140;2023-06-22T03:27:10;16.35;;;5.20;;
21837;SDS011;11081;45.946;6.140;2023-06-22T03:29:39;14.80;;;4.53;;
21837;SDS011;11081;45.946;6.140;2023-06-22T03:32:07;15.18;;;5.05;;
21837;SDS011;11081;45.946;6.140;2023-06-22T03:34:36;15.50;;;4.97;;
21837;SDS011;11081;45.946;6.140;2023-06-22T03:37:04;14.57;;;5.00;;
21837;SDS011;11081;45.946;6.140;2023-06-22T03:39:32;13.85;;;4.63;;
21837;SDS011;11081;45.946;6.140;2023-06-22T03:42:01;14.48;;;4.68;;
21837;SDS011;11081;45.946;6.140;2023-06-22T03:44:29;12.50;;;4.95;;
21837;SDS011;11081;45.946;6.140;2023-06-22T03:46:57;16.13;;;5.25;;
21837;SDS011;11081;45.946;6.140;2023-06-22T03:49:25;17.98;;;5.25;;
21837;SDS011;11081;45.946;6.140;2023-06-22T03:51:54;15.05;;;4.95;;
21837;SDS011;11081;45.946;6.140;2023-06-22T03:54:22;13.55;;;5.47;;
21837;SDS011;11081;45.946;6.140;2023-06-22T03:56:50;18.45;;;6.10;;
21837;SDS011;11081;45.946;6.140;2023-06-22T03:59:19;13.55;;;4.97;;
21837;SDS011;11081;45.946;6.140;2023-06-22T04:01:47;15.82;;;5.72;;
21837;SDS011;11081;45.946;6.140;2023-06-22T04:04:15;19.38;;;5.20;;
21837;SDS011;11081;45.946;6.140;2023-06-22T04:06:43;18.77;;;5.75;;
21837;SDS011;11081;45.946;6.140;2023-06-22T04:09:11;19.80;;;5.45;;
21837;SDS011;11081;45.946;6.140;2023-06-22T04:11:39;14.68;;;5.75;;
21837;SDS011;11081;45.946;6.140;2023-06-22T04:14:07;15.85;;;5.38;;
21837;SDS011;11081;45.946;6.140;2023-06-22T04:16:37;14.45;;;5.43;;
21837;SDS011;11081;45.946;6.140;2023-06-22T04:19:05;19.45;;;5.95;;
21837;SDS011;11081;45.946;6.140;2023-06-22T04:21:33;20.77;;;5.68;;
21837;SDS011;11081;45.946;6.140;2023-06-22T04:24:01;11.57;;;5.28;;
21837;SDS011;11081;45.946;6.140;2023-06-22T04:26:29;14.95;;;5.82;;
21837;SDS011;11081;45.946;6.140;2023-06-22T04:28:57;21.02;;;5.68;;
21837;SDS011;11081;45.946;6.140;2023-06-22T04:31:25;18.65;;;6.15;;
21837;SDS011;11081;45.946;6.140;2023-06-22T04:34:00;13.88;;;5.20;;
21837;SDS011;11081;45.946;6.140;2023-06-22T04:36:33;15.18;;;5.90;;
21837;SDS011;11081;45.946;6.140;2023-06-22T04:39:04;20.85;;;6.35;;
21837;SDS011;11081;45.946;6.140;2023-06-22T04:41:33;15.23;;;5.40;;
21837;SDS011;11081;45.946;6.140;2023-06-22T04:44:09;14.55;;;6.22;;
21837;SDS011;11081;45.946;6.140;2023-06-22T04:46:37;14.70;;;5.80;;
21837;SDS011;11081;45.946;6.140;2023-06-22T04:49:07;16.20;;;6.18;;
21837;SDS011;11081;45.946;6.140;2023-06-22T04:51:38;15.45;;;6.05;;
21837;SDS011;11081;45.946;6.140;2023-06-22T04:54:07;18.70;;;5.85;;
21837;SDS011;11081;45.946;6.140;2023-06-22T04:56:35;15.05;;;5.70;;
21837;SDS011;11081;45.946;6.140;2023-06-22T04:59:04;24.17;;;6.32;;
21837;SDS011;11081;45.946;6.140;2023-06-22T05:01:32;16.20;;;5.70;;
21837;SDS011;11081;45.946;6.140;2023-06-22T05:04:01;15.13;;;5.78;;
21837;SDS011;11081;45.946;6.140;2023-06-22T05:06:33;15.38;;;6.15;;
21837;SDS011;11081;45.946;6.140;2023-06-22T05:09:01;18.70;;;6.93;;
21837;SDS011;11081;45.946;6.140;2023-06-22T05:11:31;19.60;;;6.45;;
21837;SDS011;11081;45.946;6.140;2023-06-22T05:13:59;21.25;;;6.13;;
21837;SDS011;11081;45.946;6.140;2023-06-22T05:16:27;18.10;;;6.28;;
21837;SDS011;11081;45.946;6.140;2023-06-22T05:18:55;16.30;;;5.03;;
21837;SDS011;11081;45.946;6.140;2023-06-22T05:21:24;17.90;;;5.38;;
21837;SDS011;11081;45.946;6.140;2023-06-22T05:23:54;17.95;;;5.80;;
21837;SDS011;11081;45.946;6.140;2023-06-22T05:26:26;14.40;;;5.53;;
21837;SDS011;11081;45.946;6.140;2023-06-22T05:28:54;13.48;;;5.60;;
21837;SDS011;11081;45.946;6.140;2023-06-22T05:31:23;18.60;;;5.53;;
21837;SDS011;11081;45.946;6.140;2023-06-22T05:33:52;12.10;;;4.95;;
21837;SDS011;11081;45.946;6.140;2023-06-22T05:36:21;13.95;;;5.65;;
21837;SDS011;11081;45.946;6.140;2023-06-22T05:38:51;17.08;;;5.75;;
21837;SDS011;11081;45.946;6.140;2023-06-22T05:41:21;14.25;;;5.43;;
21837;SDS011;11081;45.946;6.140;2023-06-22T05:43:50;14.80;;;5.63;;
21837;SDS011;11081;45.946;6.140;2023-06-22T05:46:18;18.58;;;4.90;;
21837;SDS011;11081;45.946;6.140;2023-06-22T05:48:46;19.52;;;5.70;;
21837;SDS011;11081;45.946;6.140;2023-06-22T05:51:14;16.45;;;5.72;;
21837;SDS011;11081;45.946;6.140;2023-06-22T05:53:42;17.45;;;5.88;;
21837;SDS011;11081;45.946;6.140;2023-06-22T05:56:15;14.50;;;5.63;;
21837;SDS011;11081;45.946;6.140;2023-06-22T05:58:45;18.30;;;4.88;;
21837;SDS011;11081;45.946;6.140;2023-06-22T06:01:14;18.33;;;5.22;;
21837;SDS011;11081;45.946;6.140;2023-06-22T06:03:42;25.65;;;5.13;;
21837;SDS011;11081;45.946;6.140;2023-06-22T06:06:10;18.15;;;5.63;;
21837;SDS011;11081;45.946;6.140;2023-06-22T06:08:38;19.20;;;5.60;;
21837;SDS011;11081;45.946;6.140;2023-06-22T06:11:06;26.63;;;6.47;;
21837;SDS011;11081;45.946;6.140;2023-06-22T06:13:34;20.08;;;6.40;;
21837;SDS011;11081;45.946;6.140;2023-06-22T06:16:04;20.65;;;6.45;;
21837;SDS011;11081;45.946;6.140;2023-06-22T06:18:32;15.55;;;6.00;;
21837;SDS011;11081;45.946;6.140;2023-06-22T06:21:00;19.40;;;5.95;;
21837;SDS011;11081;45.946;6.140;2023-06-22T06:23:29;13.93;;;5.47;;
21837;SDS011;11081;45.946;6.140;2023-06-22T06:25:57;15.38;;;5.50;;
21837;SDS011;11081;45.946;6.140;2023-06-22T06:28:25;18.30;;;5.78;;
21837;SDS011;11081;45.946;6.140;2023-06-22T06:30:53;13.82;;;5.70;;
21837;SDS011;11081;45.946;6.140;2023-06-22T06:33:22;16.58;;;5.88;;
21837;SDS011;11081;45.946;6.140;2023-06-22T06:35:51;15.70;;;5.53;;
21837;SDS011;11081;45.946;6.140;2023-06-22T06:38:19;15.43;;;5.47;;
21837;SDS011;11081;45.946;6.140;2023-06-22T06:40:47;14.15;;;5.18;;
21837;SDS011;11081;45.946;6.140;2023-06-22T06:43:15;19.05;;;5.00;;
21837;SDS011;11081;45.946;6.140;2023-06-22T06:45:43;16.05;;;5.13;;
21837;SDS011;11081;45.946;6.140;2023-06-22T06:48:11;20.90;;;5.45;;
21837;SDS011;11081;45.946;6.140;2023-06-22T06:50:41;25.75;;;5.57;;
21837;SDS011;11081;45.946;6.140;2023-06-22T06:53:10;14.77;;;4.43;;
21837;SDS011;11081;45.946;6.140;2023-06-22T06:55:38;20.42;;;5.90;;
21837;SDS011;11081;45.946;6.140;2023-06-22T06:58:06;15.00;;;5.68;;
21837;SDS011;11081;45.946;6.140;2023-06-22T07:00:36;17.75;;;5.75;;
21837;SDS011;11081;45.946;6.140;2023-06-22T07:03:04;17.58;;;5.57;;
21837;SDS011;11081;45.946;6.140;2023-06-22T07:05:33;12.52;;;5.18;;
21837;SDS011;11081;45.946;6.140;2023-06-22T07:08:03;22.55;;;5.10;;
21837;SDS011;11081;45.946;6.140;2023-06-22T07:10:31;17.17;;;5.55;;
21837;SDS011;11081;45.946;6.140;2023-06-22T07:12:59;15.63;;;6.00;;
21837;SDS011;11081;45.946;6.140;2023-06-22T07:15:27;18.40;;;5.75;;
21837;SDS011;11081;45.946;6.140;2023-06-22T07:17:55;24.92;;;5.55;;
21837;SDS011;11081;45.946;6.140;2023-06-22T07:20:23;17.42;;;5.95;;
21837;SDS011;11081;45.946;6.140;2023-06-22T07:22:52;13.63;;;5.15;;
21837;SDS011;11081;45.946;6.140;2023-06-22T07:25:22;16.00;;;5.30;;
21837;SDS011;11081;45.946;6.140;2023-06-22T07:27:56;16.58;;;5.20;;
21837;SDS011;11081;45.946;6.140;2023-06-22T07:30:26;19.45;;;5.95;;
21837;SDS011;11081;45.946;6.140;2023-06-22T07:32:55;13.48;;;5.05;;
21837;SDS011;11081;45.946;6.140;2023-06-22T07:35:23;13.20;;;5.30;;
21837;SDS011;11081;45.946;6.140;2023-06-22T07:37:51;17.58;;;5.70;;
21837;SDS011;11081;45.946;6.140;2023-06-22T07:40:19;16.10;;;5.97;;
21837;SDS011;11081;45.946;6.140;2023-06-22T07:42:49;15.38;;;5.47;;
21837;SDS011;11081;45.946;6.140;2023-06-22T07:45:18;19.50;;;5.43;;
21837;SDS011;11081;45.946;6.140;2023-06-22T07:47:46;19.35;;;5.53;;
21837;SDS011;11081;45.946;6.140;2023-06-22T07:50:14;13.30;;;4.82;;
21837;SDS011;11081;45.946;6.140;2023-06-22T07:52:42;18.02;;;5.95;;
21837;SDS011;11081;45.946;6.140;2023-06-22T07:55:10;19.55;;;5.50;;
21837;SDS011;11081;45.946;6.140;2023-06-22T07:57:38;15.13;;;4.80;;
21837;SDS011;11081;45.946;6.140;2023-06-22T08:00:10;12.48;;;5.32;;
21837;SDS011;11081;45.946;6.140;2023-06-22T08:02:42;15.68;;;5.30;;
21837;SDS011;11081;45.946;6.140;2023-06-22T08:05:12;15.88;;;5.93;;
21837;SDS011;11081;45.946;6.140;2023-06-22T08:07:48;18.13;;;5.25;;
21837;SDS011;11081;45.946;6.140;2023-06-22T08:10:17;19.50;;;5.30;;
21837;SDS011;11081;45.946;6.140;2023-06-22T08:12:45;18.33;;;5.70;;
21837;SDS011;11081;45.946;6.140;2023-06-22T08:15:14;16.17;;;6.22;;
21837;SDS011;11081;45.946;6.140;2023-06-22T08:17:43;33.63;;;8.50;;
21837;SDS011;11081;45.946;6.140;2023-06-22T08:20:12;27.88;;;8.75;;
21837;SDS011;11081;45.946;6.140;2023-06-22T08:22:41;22.90;;;8.10;;
21837;SDS011;11081;45.946;6.140;2023-06-22T08:25:09;17.60;;;6.25;;
21837;SDS011;11081;45.946;6.140;2023-06-22T08:27:39;21.50;;;6.38;;
21837;SDS011;11081;45.946;6.140;2023-06-22T08:30:09;18.08;;;6.78;;
21837;SDS011;11081;45.946;6.140;2023-06-22T08:32:39;17.27;;;5.47;;
21837;SDS011;11081;45.946;6.140;2023-06-22T08:35:08;19.40;;;4.93;;
21837;SDS011;11081;45.946;6.140;2023-06-22T08:37:36;13.40;;;4.40;;
21837;SDS011;11081;45.946;6.140;2023-06-22T08:40:07;24.40;;;6.03;;
21837;SDS011;11081;45.946;6.140;2023-06-22T08:42:37;17.20;;;5.78;;
21837;SDS011;11081;45.946;6.140;2023-06-22T08:45:06;24.55;;;5.75;;
21837;SDS011;11081;45.946;6.140;2023-06-22T08:47:34;14.50;;;4.80;;
21837;SDS011;11081;45.946;6.140;2023-06-22T08:50:04;17.02;;;4.43;;
21837;SDS011;11081;45.946;6.140;2023-06-22T08:52:35;22.40;;;4.72;;
21837;SDS011;11081;45.946;6.140;2023-06-22T08:55:04;16.60;;;4.93;;
21837;SDS011;11081;45.946;6.140;2023-06-22T08:57:32;16.50;;;4.18;;
21837;SDS011;11081;45.946;6.140;2023-06-22T09:00:00;20.80;;;4.78;;
21837;SDS011;11081;45.946;6.140;2023-06-22T09:02:31;22.00;;;4.20;;
21837;SDS011;11081;45.946;6.140;2023-06-22T09:05:02;27.52;;;3.40;;
21837;SDS011;11081;45.946;6.140;2023-06-22T09:07:32;17.75;;;3.85;;
21837;SDS011;11081;45.946;6.140;2023-06-22T09:10:01;13.75;;;3.60;;
21837;SDS011;11081;45.946;6.140;2023-06-22T09:12:31;17.95;;;4.22;;
21837;SDS011;11081;45.946;6.140;2023-06-22T09:14:59;18.92;;;4.28;;
21837;SDS011;11081;45.946;6.140;2023-06-22T09:17:29;15.10;;;4.20;;
21837;SDS011;11081;45.946;6.140;2023-06-22T09:19:57;19.23;;;5.05;;
21837;SDS011;11081;45.946;6.140;2023-06-22T09:22:27;17.88;;;3.60;;
21837;SDS011;11081;45.946;6.140;2023-06-22T09:24:55;12.27;;;2.92;;
21837;SDS011;11081;45.946;6.140;2023-06-22T09:27:23;10.15;;;2.88;;
21837;SDS011;11081;45.946;6.140;2023-06-22T09:29:51;13.75;;;3.00;;
21837;SDS011;11081;45.946;6.140;2023-06-22T09:32:19;10.77;;;1.90;;
21837;SDS011;11081;45.946;6.140;2023-06-22T09:34:47;16.65;;;2.70;;
21837;SDS011;11081;45.946;6.140;2023-06-22T09:37:15;11.00;;;2.53;;
21837;SDS011;11081;45.946;6.140;2023-06-22T09:39:45;9.18;;;2.28;;
21837;SDS011;11081;45.946;6.140;2023-06-22T09:42:13;10.55;;;2.17;;
21837;SDS011;11081;45.946;6.140;2023-06-22T09:44:41;7.63;;;1.73;;
21837;SDS011;11081;45.946;6.140;2023-06-22T09:47:09;8.15;;;2.13;;
21837;SDS011;11081;45.946;6.140;2023-06-22T09:49:37;7.25;;;2.25;;
21837;SDS011;11081;45.946;6.140;2023-06-22T09:52:13;9.05;;;1.95;;
21837;SDS011;11081;45.946;6.140;2023-06-22T09:54:41;7.60;;;2.08;;
21837;SDS011;11081;45.946;6.140;2023-06-22T09:57:10;11.80;;;2.53;;
21837;SDS011;11081;45.946;6.140;2023-06-22T09:59:39;14.35;;;2.50;;
21837;SDS011;11081;45.946;6.140;2023-06-22T10:02:07;8.45;;;2.30;;
21837;SDS011;11081;45.946;6.140;2023-06-22T10:04:35;9.40;;;2.53;;
21837;SDS011;11081;45.946;6.140;2023-06-22T10:07:04;13.73;;;2.30;;
21837;SDS011;11081;45.946;6.140;2023-06-22T10:09:32;12.48;;;3.05;;
21837;SDS011;11081;45.946;6.140;2023-06-22T10:12:00;7.78;;;3.00;;
21837;SDS011;11081;45.946;6.140;2023-06-22T10:14:30;15.20;;;2.47;;
21837;SDS011;11081;45.946;6.140;2023-06-22T10:16:58;12.40;;;2.60;;
21837;SDS011;11081;45.946;6.140;2023-06-22T10:19:26;9.40;;;2.13;;
21837;SDS011;11081;45.946;6.140;2023-06-22T10:21:54;10.10;;;2.35;;
21837;SDS011;11081;45.946;6.140;2023-06-22T10:24:22;9.05;;;2.47;;
21837;SDS011;11081;45.946;6.140;2023-06-22T10:26:50;11.95;;;2.88;;
21837;SDS011;11081;45.946;6.140;2023-06-22T10:29:18;11.43;;;2.90;;
21837;SDS011;11081;45.946;6.140;2023-06-22T10:31:47;9.13;;;2.78;;
21837;SDS011;11081;45.946;6.140;2023-06-22T10:34:15;12.77;;;2.88;;
21837;SDS011;11081;45.946;6.140;2023-06-22T10:36:43;8.65;;;2.47;;
21837;SDS011;11081;45.946;6.140;2023-06-22T10:39:13;10.65;;;2.67;;
21837;SDS011;11081;45.946;6.140;2023-06-22T10:41:42;12.70;;;2.63;;
21837;SDS011;11081;45.946;6.140;2023-06-22T10:44:10;7.03;;;2.45;;
21837;SDS011;11081;45.946;6.140;2023-06-22T10:46:38;9.02;;;2.42;;
21837;SDS011;11081;45.946;6.140;2023-06-22T10:49:08;13.68;;;2.72;;
21837;SDS011;11081;45.946;6.140;2023-06-22T10:51:36;10.63;;;2.67;;
21837;SDS011;11081;45.946;6.140;2023-06-22T10:54:04;9.15;;;2.90;;
21837;SDS011;11081;45.946;6.140;2023-06-22T10:56:32;11.00;;;3.10;;
21837;SDS011;11081;45.946;6.140;2023-06-22T10:59:00;8.98;;;3.50;;
21837;SDS011;11081;45.946;6.140;2023-06-22T11:01:29;9.73;;;2.92;;
21837;SDS011;11081;45.946;6.140;2023-06-22T11:04:02;7.80;;;2.50;;
21837;SDS011;11081;45.946;6.140;2023-06-22T11:06:32;7.05;;;2.67;;
21837;SDS011;11081;45.946;6.140;2023-06-22T11:09:01;13.63;;;2.90;;
21837;SDS011;11081;45.946;6.140;2023-06-22T11:11:48;13.98;;;3.17;;
21837;SDS011;11081;45.946;6.140;2023-06-22T11:14:17;14.05;;;2.88;;
21837;SDS011;11081;45.946;6.140;2023-06-22T11:16:45;11.00;;;2.70;;
21837;SDS011;11081;45.946;6.140;2023-06-22T11:19:13;8.25;;;2.45;;
21837;SDS011;11081;45.946;6.140;2023-06-22T11:21:44;12.13;;;2.90;;
21837;SDS011;11081;45.946;6.140;2023-06-22T11:24:12;14.75;;;3.03;;
21837;SDS011;11081;45.946;6.140;2023-06-22T11:26:40;10.52;;;2.90;;
21837;SDS011;11081;45.946;6.140;2023-06-22T11:29:08;13.68;;;3.20;;
21837;SDS011;11081;45.946;6.140;2023-06-22T11:31:53;9.80;;;2.90;;
21837;SDS011;11081;45.946;6.140;2023-06-22T11:34:21;9.82;;;2.78;;
21837;SDS011;11081;45.946;6.140;2023-06-22T11:36:50;13.32;;;2.70;;
21837;SDS011;11081;45.946;6.140;2023-06-22T11:39:18;11.98;;;2.92;;
21837;SDS011;11081;45.946;6.140;2023-06-22T11:41:59;14.43;;;2.90;;
21837;SDS011;11081;45.946;6.140;2023-06-22T11:44:27;13.20;;;2.63;;
21837;SDS011;11081;45.946;6.140;2023-06-22T11:46:55;10.68;;;3.20;;
21837;SDS011;11081;45.946;6.140;2023-06-22T11:49:23;10.68;;;2.78;;
21837;SDS011;11081;45.946;6.140;2023-06-22T11:51:53;10.82;;;2.83;;
21837;SDS011;11081;45.946;6.140;2023-06-22T11:54:21;10.10;;;2.88;;
21837;SDS011;11081;45.946;6.140;2023-06-22T11:56:48;13.32;;;3.05;;
21837;SDS011;11081;45.946;6.140;2023-06-22T11:59:16;11.98;;;2.97;;
21837;SDS011;11081;45.946;6.140;2023-06-22T12:01:44;14.00;;;3.22;;
21837;SDS011;11081;45.946;6.140;2023-06-22T12:04:14;10.50;;;2.55;;
21837;SDS011;11081;45.946;6.140;2023-06-22T12:06:42;15.95;;;3.47;;
21837;SDS011;11081;45.946;6.140;2023-06-22T12:09:11;14.23;;;3.67;;
21837;SDS011;11081;45.946;6.140;2023-06-22T12:11:40;11.18;;;2.88;;
21837;SDS011;11081;45.946;6.140;2023-06-22T12:14:08;12.98;;;3.55;;
21837;SDS011;11081;45.946;6.140;2023-06-22T12:16:36;16.55;;;3.45;;
21837;SDS011;11081;45.946;6.140;2023-06-22T12:19:04;12.18;;;4.00;;
21837;SDS011;11081;45.946;6.140;2023-06-22T12:21:32;12.10;;;3.03;;
21837;SDS011;11081;45.946;6.140;2023-06-22T12:24:00;11.50;;;2.92;;
21837;SDS011;11081;45.946;6.140;2023-06-22T12:26:29;15.98;;;3.35;;
21837;SDS011;11081;45.946;6.140;2023-06-22T12:28:57;11.07;;;3.10;;
21837;SDS011;11081;45.946;6.140;2023-06-22T12:31:25;15.70;;;3.10;;
21837;SDS011;11081;45.946;6.140;2023-06-22T12:33:53;13.60;;;3.60;;
21837;SDS011;11081;45.946;6.140;2023-06-22T12:36:21;12.38;;;3.08;;
21837;SDS011;11081;45.946;6.140;2023-06-22T12:38:50;9.52;;;3.33;;
21837;SDS011;11081;45.946;6.140;2023-06-22T12:41:21;13.95;;;3.40;;
21837;SDS011;11081;45.946;6.140;2023-06-22T12:43:51;14.75;;;3.75;;
21837;SDS011;11081;45.946;6.140;2023-06-22T12:46:19;8.35;;;3.13;;
21837;SDS011;11081;45.946;6.140;2023-06-22T12:48:47;8.20;;;2.50;;
21837;SDS011;11081;45.946;6.140;2023-06-22T12:51:19;10.05;;;3.20;;
21837;SDS011;11081;45.946;6.140;2023-06-22T12:53:48;11.93;;;2.72;;
21837;SDS011;11081;45.946;6.140;2023-06-22T12:56:16;14.00;;;3.40;;
21837;SDS011;11081;45.946;6.140;2023-06-22T12:58:44;10.73;;;3.25;;
21837;SDS011;11081;45.946;6.140;2023-06-22T13:01:14;11.43;;;2.90;;
21837;SDS011;11081;45.946;6.140;2023-06-22T13:03:42;14.07;;;3.50;;
21837;SDS011;11081;45.946;6.140;2023-06-22T13:06:10;15.07;;;3.70;;
21837;SDS011;11081;45.946;6.140;2023-06-22T13:08:38;16.55;;;3.47;;
21837;SDS011;11081;45.946;6.140;2023-06-22T13:11:08;10.73;;;3.13;;
21837;SDS011;11081;45.946;6.140;2023-06-22T13:13:37;9.73;;;3.50;;
21837;SDS011;11081;45.946;6.140;2023-06-22T13:16:06;15.02;;;3.35;;
21837;SDS011;11081;45.946;6.140;2023-06-22T13:18:35;12.88;;;3.25;;
21837;SDS011;11081;45.946;6.140;2023-06-22T13:21:03;16.50;;;4.00;;
21837;SDS011;11081;45.946;6.140;2023-06-22T13:23:32;13.10;;;3.60;;
21837;SDS011;11081;45.946;6.140;2023-06-22T13:26:00;18.25;;;3.72;;
21837;SDS011;11081;45.946;6.140;2023-06-22T13:28:29;11.85;;;3.63;;
21837;SDS011;11081;45.946;6.140;2023-06-22T13:30:57;18.65;;;3.83;;
21837;SDS011;11081;45.946;6.140;2023-06-22T13:33:25;18.50;;;4.00;;
21837;SDS011;11081;45.946;6.140;2023-06-22T13:35:55;10.93;;;3.90;;
21837;SDS011;11081;45.946;6.140;2023-06-22T13:38:23;12.80;;;4.07;;
21837;SDS011;11081;45.946;6.140;2023-06-22T13:40:51;16.58;;;4.80;;
21837;SDS011;11081;45.946;6.140;2023-06-22T13:43:19;9.43;;;3.25;;
21837;SDS011;11081;45.946;6.140;2023-06-22T13:45:47;15.13;;;4.10;;
21837;SDS011;11081;45.946;6.140;2023-06-22T13:48:15;12.07;;;3.50;;
21837;SDS011;11081;45.946;6.140;2023-06-22T13:50:44;18.42;;;4.53;;
21837;SDS011;11081;45.946;6.140;2023-06-22T13:53:13;13.82;;;4.78;;
21837;SDS011;11081;45.946;6.140;2023-06-22T13:55:41;8.95;;;3.50;;
21837;SDS011;11081;45.946;6.140;2023-06-22T13:58:09;15.38;;;3.92;;
21837;SDS011;11081;45.946;6.140;2023-06-22T14:00:37;18.30;;;4.60;;
21837;SDS011;11081;45.946;6.140;2023-06-22T14:03:05;13.18;;;4.15;;
21837;SDS011;11081;45.946;6.140;2023-06-22T14:05:33;16.38;;;3.95;;
21837;SDS011;11081;45.946;6.140;2023-06-22T14:08:01;9.88;;;3.83;;
21837;SDS011;11081;45.946;6.140;2023-06-22T14:10:47;8.55;;;4.00;;
21837;SDS011;11081;45.946;6.140;2023-06-22T14:13:15;11.45;;;3.97;;
21837;SDS011;11081;45.946;6.140;2023-06-22T14:15:43;13.27;;;4.53;;
21837;SDS011;11081;45.946;6.140;2023-06-22T14:18:11;13.20;;;3.72;;
21837;SDS011;11081;45.946;6.140;2023-06-22T14:20:39;9.80;;;4.25;;
21837;SDS011;11081;45.946;6.140;2023-06-22T14:23:07;8.77;;;4.00;;
21837;SDS011;11081;45.946;6.140;2023-06-22T14:25:35;7.47;;;3.53;;
21837;SDS011;11081;45.946;6.140;2023-06-22T14:28:04;10.07;;;3.70;;
21837;SDS011;11081;45.946;6.140;2023-06-22T14:30:32;39.20;;;4.38;;
21837;SDS011;11081;45.946;6.140;2023-06-22T14:33:00;23.00;;;4.10;;
21837;SDS011;11081;45.946;6.140;2023-06-22T14:35:28;21.92;;;4.43;;
21837;SDS011;11081;45.946;6.140;2023-06-22T14:37:56;15.75;;;3.55;;
21837;SDS011;11081;45.946;6.140;2023-06-22T14:40:24;12.57;;;3.40;;
21837;SDS011;11081;45.946;6.140;2023-06-22T14:42:52;13.65;;;3.00;;
21837;SDS011;11081;45.946;6.140;2023-06-22T14:45:24;8.18;;;2.45;;
21837;SDS011;11081;45.946;6.140;2023-06-22T14:47:52;11.40;;;2.50;;